| time (UTC) | temp F | wind direction | speed knots | gust knots | rain 1hr in | rain 24hr in | rain mn in | humidity % | barometer mb |
| 20260906200044 | 83 | 143 | 2.6 | 12.2 | 0.00 | 1.51 | 1.51 | 60 | 1009.1 |
| 20260906194534 | 81 | 177 | 0.9 | 12.2 | 0.00 | 1.51 | 1.51 | 67 | 1009.3 |
| 20260906193030 | 79 | 140 | 0.9 | 12.2 | 0.00 | 1.51 | 1.51 | 67 | 1009.4 |
| 20260906191627 | 77 | 129 | 0.0 | 3.5 | 0.00 | 1.51 | 1.51 | 75 | 1009.9 |
| 20260906190008 | 74 | 211 | 0.0 | 1.7 | 0.00 | 1.51 | 1.51 | 81 | 1010.5 |
| 20260906184508 | 74 | 135 | 0.0 | 0.0 | 0.01 | 1.51 | 1.51 | 78 | 1010.3 |
| 20260906183050 | 73 | 112 | 0.0 | 0.0 | 0.02 | 1.51 | 1.51 | 81 | 1011.3 |
| 20260906181624 | 73 | 105 | 0.0 | 0.9 | 0.05 | 1.51 | 1.51 | 83 | 1012.1 |
| 20260906180039 | 71 | 99 | 0.0 | 0.0 | 0.08 | 1.51 | 1.51 | 87 | 1013.1 |
| 20260906174541 | 71 | 105 | 0.0 | 0.0 | 0.13 | 1.50 | 1.50 | 87 | 1014.2 |
| 20260906173037 | 70 | 175 | 0.0 | 0.0 | 0.24 | 1.49 | 1.49 | 89 | 1014.9 |
| 20260906171536 | 69 | 148 | 0.0 | 0.0 | 0.26 | 1.46 | 1.46 | 89 | 1015.4 |
| 20260906170038 | 69 | 150 | 0.0 | 1.7 | 0.46 | 1.43 | 1.43 | 89 | 1015.2 |
| 20260906164540 | 69 | 167 | 2.6 | 20.0 | 0.53 | 1.37 | 1.37 | 89 | 1015.3 |
| 20260906163034 | 69 | 207 | 1.7 | 11.3 | 0.42 | 1.25 | 1.25 | 89 | 1015.3 |
| 20260906161532 | 69 | 130 | 0.0 | 7.0 | 0.36 | 1.19 | 1.19 | 82 | 1014.4 |
| 20260906160013 | 70 | 219 | 0.0 | 7.8 | 0.12 | 0.95 | 0.95 | 88 | 1014.6 |
| 20260906154526 | 70 | 304 | 0.0 | 0.0 | 0.01 | 0.84 | 0.84 | 89 | 1013.3 |
| 20260906153108 | 69 | 309 | 0.0 | 0.9 | 0.00 | 0.83 | 0.83 | 81 | 1012.6 |
| 20260906151553 | 68 | 302 | 0.0 | 1.7 | 0.00 | 0.83 | 0.83 | 79 | 1012.1 |
| 20260906150050 | 68 | 134 | 0.0 | 0.0 | 0.00 | 0.83 | 0.83 | 79 | 1012.2 |
| 20260906144536 | 68 | 293 | 0.0 | 0.0 | 0.03 | 0.83 | 0.83 | 80 | 1012.5 |
| 20260906143033 | 68 | 317 | 0.0 | 5.2 | 0.19 | 0.83 | 0.83 | 80 | 1012.6 |
| 20260906141511 | 68 | 300 | 0.9 | 6.1 | 0.67 | 0.83 | 0.83 | 80 | 1011.8 |
| 20260906140011 | 68 | 294 | 0.0 | 0.0 | 0.83 | 0.83 | 0.83 | 81 | 1011.5 |
| 20260906134553 | 68 | 259 | 0.0 | 0.0 | 0.79 | 0.79 | 0.79 | 83 | 1011.9 |
| 20260906133103 | 69 | 306 | 0.0 | 0.9 | 0.62 | 0.62 | 0.62 | 87 | 1011.6 |
| 20260906131534 | 74 | 224 | 0.0 | 1.7 | 0.16 | 0.16 | 0.16 | 83 | 1012.2 |
| 20260906130022 | 77 | 210 | 0.0 | 0.0 | 0.00 | 0.00 | 0.00 | 78 | 1010.2 |
| 20260906124505 | 77 | 217 | 0.0 | 1.7 | 0.00 | 0.00 | 0.00 | 78 | 1010.5 |
| 20260906123005 | 77 | 269 | 0.0 | 0.0 | 0.00 | 0.00 | 0.00 | 83 | 1010.5 |
| 20260906121544 | 77 | 123 | 0.0 | 6.1 | 0.00 | 0.00 | 0.00 | 86 | 1010.0 |
| 20260906120047 | 76 | 151 | 0.0 | 3.5 | 0.00 | 0.00 | 0.00 | 88 | 1010.1 |
| 20260906114544 | 76 | 177 | 0.0 | 2.6 | 0.00 | 0.00 | 0.00 | 89 | 1009.7 |
| 20260906113030 | 75 | 184 | 0.0 | 1.7 | 0.00 | 0.00 | 0.00 | 89 | 1009.5 |
| 20260906111534 | 75 | 127 | 0.0 | 0.0 | 0.00 | 0.00 | 0.00 | 89 | 1009.2 |
| 20260906110028 | 75 | 132 | 0.0 | 0.9 | 0.00 | 0.00 | 0.00 | 89 | 1009.0 |
| 20260906104533 | 76 | 107 | 0.0 | 0.0 | 0.00 | 0.00 | 0.00 | 89 | 1009.0 |
| 20260906103025 | 76 | 132 | 0.0 | 0.0 | 0.00 | 0.00 | 0.00 | 89 | 1008.9 |
| 20260906101524 | 76 | 102 | 0.0 | 1.7 | 0.00 | 0.00 | 0.00 | 88 | 1009.2 |
| 20260906100029 | 76 | 139 | 0.0 | 0.0 | 0.00 | 0.00 | 0.00 | 88 | 1009.2 |
| 20260906094518 | 76 | 127 | 0.0 | 0.0 | 0.00 | 0.00 | 0.00 | 88 | 1009.3 |
| 20260906093008 | 76 | 132 | 0.0 | 0.0 | 0.00 | 0.00 | 0.00 | 88 | 1009.5 |
| 20260906091546 | 76 | 103 | 0.0 | 0.0 | 0.00 | 0.00 | 0.00 | 88 | 1009.3 |
| 20260906090046 | 76 | 143 | 0.0 | 1.7 | 0.00 | 0.00 | 0.00 | 88 | 1009.1 |
| 20260906084526 | 76 | 138 | 0.0 | 0.9 | 0.00 | 0.00 | 0.00 | 87 | 1009.3 |
| 20260906083040 | 76 | 107 | 0.0 | 1.7 | 0.00 | 0.00 | 0.00 | 87 | 1009.6 |
| 20260906081514 | 76 | 105 | 0.0 | 0.9 | 0.00 | 0.00 | 0.00 | 87 | 1009.8 |
| 20260906080011 | 76 | 135 | 0.0 | 0.9 | 0.00 | 0.00 | 0.00 | 87 | 1010.1 |
| 20260906074509 | 77 | 122 | 0.0 | 2.6 | 0.00 | 0.00 | 0.00 | 86 | 1010.1 |
| 20260906073017 | 77 | 120 | 0.0 | 1.7 | 0.00 | 0.00 | 0.00 | 87 | 1009.9 |
| 20260906071508 | 76 | 108 | 0.0 | 0.0 | 0.00 | 0.00 | 0.00 | 87 | 1009.8 |
| 20260906070008 | 76 | 131 | 0.0 | 0.9 | 0.00 | 0.00 | 0.00 | 87 | 1009.9 |
| 20260906064507 | 76 | 99 | 0.0 | 0.0 | 0.00 | 0.00 | 0.00 | 87 | 1009.9 |
| 20260906063006 | 77 | 131 | 0.0 | 0.0 | 0.00 | 0.00 | 0.00 | 86 | 1009.8 |
| 20260906061648 | 77 | 141 | 0.0 | 0.9 | 0.00 | 0.00 | 0.00 | 86 | 1009.9 |
| 20260906060047 | 77 | 131 | 0.0 | 4.3 | 0.00 | 0.00 | 0.00 | 86 | 1010.0 |
| 20260906054528 | 77 | 110 | 0.0 | 2.6 | 0.00 | 0.00 | 0.00 | 86 | 1010.0 |
| 20260906053026 | 77 | 105 | 0.0 | 2.6 | 0.00 | 0.00 | 0.00 | 86 | 1009.9 |
| 20260906051508 | 77 | 107 | 0.0 | 1.7 | 0.00 | 0.00 | 0.00 | 85 | 1009.7 |
| 20260906050005 | 77 | 105 | 0.0 | 2.6 | 0.00 | 0.00 | 0.00 | 84 | 1009.9 |
| 20260906044555 | 77 | 139 | 0.0 | 0.9 | 0.00 | 0.00 | 0.00 | 83 | 1009.9 |
| 20260906043046 | 78 | 132 | 0.0 | 4.3 | 0.00 | 0.00 | 0.00 | 82 | 1009.8 |
| 20260906041529 | 78 | 106 | 0.0 | 0.9 | 0.00 | 0.00 | 0.00 | 81 | 1009.9 |
| 20260906040032 | 78 | 126 | 0.0 | 0.9 | 0.00 | 0.00 | 0.00 | 80 | 1010.0 |
| 20260906034511 | 78 | 107 | 0.0 | 1.7 | 0.00 | 0.00 | 0.00 | 79 | 1010.1 |
| 20260906033013 | 79 | 134 | 0.0 | 0.0 | 0.00 | 0.00 | 0.00 | 77 | 1010.3 |
| 20260906031552 | 80 | 91 | 0.0 | 0.0 | 0.00 | 0.00 | 0.00 | 76 | 1010.3 |
| 20260906030052 | 80 | 72 | 0.0 | 0.0 | 0.00 | 0.00 | 0.00 | 75 | 1010.4 |
| 20260906024546 | 80 | 101 | 0.0 | 0.0 | 0.00 | 0.00 | 0.00 | 74 | 1010.4 |
| 20260906023034 | 81 | 89 | 0.0 | 0.0 | 0.00 | 0.00 | 0.00 | 73 | 1010.2 |
| 20260906021519 | 81 | 93 | 0.0 | 0.0 | 0.00 | 0.00 | 0.00 | 73 | 1010.0 |
| 20260906020016 | 82 | 75 | 0.0 | 0.0 | 0.00 | 0.00 | 0.00 | 73 | 1009.4 |
| 20260906014638 | 82 | 87 | 0.0 | 0.0 | 0.00 | 0.00 | 0.00 | 72 | 1009.1 |
| 20260906013101 | 82 | 79 | 0.0 | 0.0 | 0.00 | 0.00 | 0.00 | 71 | 1008.7 |
| 20260906011542 | 83 | 68 | 0.0 | 0.0 | 0.00 | 0.00 | 0.00 | 70 | 1008.6 |
| 20260906010038 | 84 | 94 | 0.0 | 0.0 | 0.00 | 0.00 | 0.00 | 68 | 1008.8 |
| 20260906004520 | 84 | 88 | 0.0 | 0.9 | 0.00 | 0.00 | 0.00 | 67 | 1008.6 |
| 20260906003020 | 85 | 103 | 0.0 | 0.9 | 0.00 | 0.00 | 0.00 | 66 | 1008.4 |
| 20260906001502 | 86 | 72 | 0.0 | 0.0 | 0.00 | 0.00 | 0.00 | 63 | 1008.1 |
| 20260906000002 | 87 | 116 | 0.0 | 0.0 | 0.00 | 0.00 | 0.00 | 62 | 1007.8 |
| 20260905234544 | 89 | 101 | 0.0 | 0.0 | 0.00 | 0.00 | 0.00 | 59 | 1007.7 |
| 20260905233046 | 90 | 101 | 0.0 | 0.0 | 0.00 | 0.00 | 0.00 | 57 | 1007.9 |
| 20260905231525 | 90 | 70 | 0.0 | 0.0 | 0.00 | 0.00 | 0.00 | 56 | 1007.7 |
| 20260905230025 | 90 | 104 | 0.0 | 0.0 | 0.00 | 0.00 | 0.00 | 56 | 1007.6 |
| 20260905224507 | 89 | 137 | 0.0 | 0.0 | 0.00 | 0.00 | 0.00 | 57 | 1007.7 |
| 20260905223006 | 89 | 103 | 0.0 | 0.0 | 0.00 | 0.00 | 0.00 | 56 | 1007.8 |
| 20260905221605 | 90 | 132 | 0.0 | 0.0 | 0.00 | 0.00 | 0.00 | 54 | 1007.8 |
| 20260905220046 | 90 | 150 | 0.0 | 0.0 | 0.00 | 0.00 | 0.00 | 54 | 1007.8 |
| 20260905214530 | 91 | 229 | 0.0 | 0.9 | 0.00 | 0.00 | 0.00 | 52 | 1008.1 |
| 20260905213027 | 92 | 149 | 0.0 | 4.3 | 0.00 | 0.00 | 0.00 | 49 | 1008.1 |
| 20260905211509 | 93 | 194 | 0.0 | 5.2 | 0.00 | 0.00 | 0.00 | 48 | 1007.9 |
| 20260905210008 | 93 | 221 | 0.0 | 2.6 | 0.00 | 0.00 | 0.00 | 48 | 1007.8 |
| 20260905204551 | 92 | 154 | 0.0 | 7.8 | 0.00 | 0.00 | 0.00 | 49 | 1007.6 |
| 20260905203053 | 93 | 205 | 0.0 | 1.7 | 0.00 | 0.00 | 0.00 | 46 | 1007.6 |
| 20260905201532 | 94 | 141 | 0.9 | 6.1 | 0.00 | 0.00 | 0.00 | 44 | 1007.5 |